PTRZB SBMN-SWKO
Flight info
| Callsign | PTRZB |
|---|---|
| Flight time | 1h 13m |
| Altitude | 6500 |
| Route | DCT 0306S06004W REA 0302S06032W 0344S06139W 0353S06237W 0400S06306W DCT |
| Aircraft | C208/L-SDFGR/C |
Departure
| Time | 2026-04-25 12:03 |
|---|---|
| Airport | Ponta Pelada Airport / Manaus Air Base (SBMN) |
Arrival
| Time | 2026-04-25 13:16 |
|---|---|
| Airport | Danilson Municipal Airport (SWKO) |
| Time | Latitude | Longitude | Altitude | Speed | Heading |
|---|---|---|---|---|---|
| 2026-04-25 11:39 | -3.14478 | -59.98716 | 259 ft | 0 kts | 345° |
| 2026-04-25 11:53 | -3.14483 | -59.98715 | 259 ft | 3 kts | 345° |
| 2026-04-25 11:53 | -3.14492 | -59.98713 | 260 ft | 0 kts | 345° |
| 2026-04-25 11:54 | -3.14490 | -59.98707 | 260 ft | 0 kts | 337° |
| 2026-04-25 11:59 | -3.14515 | -59.98672 | 259 ft | 9 kts | 152° |
| 2026-04-25 11:59 | -3.14579 | -59.98652 | 258 ft | 11 kts | 155° |
| 2026-04-25 12:00 | -3.14533 | -59.98370 | 259 ft | 36 kts | 75° |
| 2026-04-25 12:00 | -3.14475 | -59.98138 | 259 ft | 32 kts | 75° |
| 2026-04-25 12:00 | -3.14380 | -59.97775 | 258 ft | 25 kts | 75° |
| 2026-04-25 12:01 | -3.14327 | -59.97650 | 258 ft | 8 kts | 103° |
| 2026-04-25 12:01 | -3.14355 | -59.97663 | 267 ft | 6 kts | 252° |
| 2026-04-25 12:01 | -3.14363 | -59.97693 | 257 ft | 0 kts | 256° |
| 2026-04-25 12:02 | -3.14396 | -59.97828 | 258 ft | 62 kts | 256° |
| 2026-04-25 12:02 | -3.14560 | -59.98463 | 373 ft | 110 kts | 256° |
| 2026-04-25 12:03 | -3.14511 | -59.99239 | 688 ft | 123 kts | 292° |
| 2026-04-25 12:03 | -3.14196 | -60.00093 | 1019 ft | 138 kts | 286° |
| 2026-04-25 12:03 | -3.13912 | -60.01076 | 1391 ft | 155 kts | 285° |
| 2026-04-25 12:03 | -3.13609 | -60.02167 | 1776 ft | 167 kts | 287° |
| 2026-04-25 12:04 | -3.13299 | -60.03308 | 2119 ft | 170 kts | 286° |
| 2026-04-25 12:04 | -3.13003 | -60.04416 | 2448 ft | 164 kts | 285° |
| 2026-04-25 12:04 | -3.12714 | -60.05503 | 2749 ft | 160 kts | 285° |
| 2026-04-25 12:04 | -3.12429 | -60.06569 | 3027 ft | 158 kts | 285° |
| 2026-04-25 12:05 | -3.12218 | -60.07648 | 3316 ft | 159 kts | 269° |
| 2026-04-25 12:05 | -3.12436 | -60.08729 | 3589 ft | 157 kts | 256° |
| 2026-04-25 12:05 | -3.12672 | -60.09813 | 3650 ft | 168 kts | 257° |
| 2026-04-25 12:05 | -3.12948 | -60.11068 | 3067 ft | 199 kts | 257° |
| 2026-04-25 12:06 | -3.13251 | -60.12429 | 2466 ft | 200 kts | 257° |
| 2026-04-25 12:06 | -3.13548 | -60.13764 | 1905 ft | 190 kts | 257° |
| 2026-04-25 12:06 | -3.13819 | -60.14989 | 1861 ft | 174 kts | 257° |
| 2026-04-25 12:06 | -3.14082 | -60.16165 | 1866 ft | 172 kts | 257° |
| 2026-04-25 12:07 | -3.14344 | -60.17339 | 1859 ft | 173 kts | 256° |
| 2026-04-25 12:07 | -3.14608 | -60.18517 | 1877 ft | 179 kts | 257° |
| 2026-04-25 12:07 | -3.14877 | -60.19735 | 1869 ft | 179 kts | 256° |
| 2026-04-25 12:07 | -3.15144 | -60.20945 | 1877 ft | 178 kts | 256° |
| 2026-04-25 12:08 | -3.15413 | -60.22151 | 1878 ft | 177 kts | 257° |
| 2026-04-25 12:08 | -3.15683 | -60.23366 | 1878 ft | 178 kts | 257° |
| 2026-04-25 12:08 | -3.15709 | -60.24599 | 1872 ft | 181 kts | 282° |
| 2026-04-25 12:08 | -3.15224 | -60.25733 | 1877 ft | 179 kts | 300° |
| 2026-04-25 12:09 | -3.14640 | -60.26840 | 1876 ft | 179 kts | 297° |
| 2026-04-25 12:09 | -3.14067 | -60.27951 | 1876 ft | 179 kts | 298° |
| 2026-04-25 12:09 | -3.13485 | -60.29055 | 1880 ft | 179 kts | 298° |
| 2026-04-25 12:09 | -3.12902 | -60.30168 | 1877 ft | 181 kts | 298° |
| 2026-04-25 12:10 | -3.12314 | -60.31282 | 1868 ft | 179 kts | 297° |
| 2026-04-25 12:10 | -3.11745 | -60.32372 | 1864 ft | 178 kts | 298° |
| 2026-04-25 12:10 | -3.11170 | -60.33469 | 1876 ft | 178 kts | 298° |
| 2026-04-25 12:10 | -3.10732 | -60.34622 | 1868 ft | 178 kts | 278° |
| 2026-04-25 12:11 | -3.10614 | -60.35855 | 1874 ft | 179 kts | 277° |
| 2026-04-25 12:11 | -3.10444 | -60.37088 | 1879 ft | 179 kts | 277° |
| 2026-04-25 12:11 | -3.10285 | -60.38325 | 1882 ft | 180 kts | 277° |
| 2026-04-25 12:11 | -3.10132 | -60.39568 | 1884 ft | 180 kts | 277° |
| 2026-04-25 12:12 | -3.09976 | -60.40815 | 1881 ft | 181 kts | 277° |
| 2026-04-25 12:12 | -3.09875 | -60.41641 | 1877 ft | 180 kts | 277° |
| 2026-04-25 12:12 | -3.09668 | -60.43285 | 1879 ft | 179 kts | 276° |
| 2026-04-25 12:12 | -3.09514 | -60.44520 | 1879 ft | 179 kts | 276° |
| 2026-04-25 12:13 | -3.09195 | -60.45712 | 1872 ft | 178 kts | 299° |
| 2026-04-25 12:13 | -3.08540 | -60.46767 | 1867 ft | 178 kts | 301° |
| 2026-04-25 12:13 | -3.07930 | -60.47847 | 1876 ft | 179 kts | 300° |
| 2026-04-25 12:13 | -3.07304 | -60.48929 | 1882 ft | 180 kts | 301° |
| 2026-04-25 12:14 | -3.06684 | -60.49995 | 1881 ft | 179 kts | 301° |
| 2026-04-25 12:14 | -3.06053 | -60.51070 | 1882 ft | 179 kts | 301° |
| 2026-04-25 12:14 | -3.05425 | -60.52150 | 1882 ft | 179 kts | 301° |
| 2026-04-25 12:14 | -3.04964 | -60.53298 | 1871 ft | 179 kts | 278° |
| 2026-04-25 12:15 | -3.05034 | -60.54536 | 1868 ft | 178 kts | 254° |
| 2026-04-25 12:15 | -3.05584 | -60.55640 | 1879 ft | 177 kts | 235° |
| 2026-04-25 12:15 | -3.06246 | -60.56676 | 1879 ft | 177 kts | 237° |
| 2026-04-25 12:15 | -3.06884 | -60.57707 | 1879 ft | 176 kts | 236° |
| 2026-04-25 12:16 | -3.07542 | -60.58748 | 1877 ft | 176 kts | 236° |
| 2026-04-25 12:16 | -3.08200 | -60.59791 | 1877 ft | 177 kts | 237° |
| 2026-04-25 12:16 | -3.08851 | -60.60825 | 1881 ft | 178 kts | 237° |
| 2026-04-25 12:16 | -3.09511 | -60.61871 | 1889 ft | 177 kts | 236° |
| 2026-04-25 12:17 | -3.10170 | -60.62916 | 1886 ft | 178 kts | 237° |
| 2026-04-25 12:17 | -3.10831 | -60.63964 | 1882 ft | 177 kts | 236° |
| 2026-04-25 12:17 | -3.11487 | -60.65006 | 1881 ft | 177 kts | 237° |
| 2026-04-25 12:17 | -3.12147 | -60.66053 | 1883 ft | 177 kts | 236° |
| 2026-04-25 12:18 | -3.12795 | -60.67083 | 1883 ft | 177 kts | 236° |
| 2026-04-25 12:18 | -3.13452 | -60.68127 | 1877 ft | 177 kts | 236° |
| 2026-04-25 12:18 | -3.14082 | -60.69128 | 2153 ft | 162 kts | 236° |
| 2026-04-25 12:18 | -3.14665 | -60.70052 | 2469 ft | 152 kts | 236° |
| 2026-04-25 12:19 | -3.15587 | -60.71515 | 2966 ft | 149 kts | 237° |
| 2026-04-25 12:19 | -3.16326 | -60.72688 | 3360 ft | 149 kts | 237° |
| 2026-04-25 12:19 | -3.16878 | -60.73564 | 3640 ft | 149 kts | 237° |
| 2026-04-25 12:20 | -3.17423 | -60.74429 | 3922 ft | 148 kts | 237° |
| 2026-04-25 12:20 | -3.17971 | -60.75299 | 4206 ft | 147 kts | 237° |
| 2026-04-25 12:20 | -3.18516 | -60.76164 | 4500 ft | 147 kts | 237° |
| 2026-04-25 12:20 | -3.19059 | -60.77027 | 4790 ft | 146 kts | 237° |
| 2026-04-25 12:21 | -3.19604 | -60.77891 | 5075 ft | 146 kts | 237° |
| 2026-04-25 12:21 | -3.20145 | -60.78749 | 5360 ft | 147 kts | 237° |
| 2026-04-25 12:21 | -3.20688 | -60.79613 | 5653 ft | 146 kts | 238° |
| 2026-04-25 12:21 | -3.21229 | -60.80471 | 5942 ft | 146 kts | 238° |
| 2026-04-25 12:22 | -3.21770 | -60.81330 | 6235 ft | 145 kts | 238° |
| 2026-04-25 12:22 | -3.22311 | -60.82189 | 6471 ft | 149 kts | 238° |
| 2026-04-25 12:22 | -3.22894 | -60.83114 | 6484 ft | 164 kts | 238° |
| 2026-04-25 12:22 | -3.23515 | -60.84102 | 6490 ft | 171 kts | 238° |
| 2026-04-25 12:23 | -3.24158 | -60.85122 | 6489 ft | 175 kts | 238° |
| 2026-04-25 12:23 | -3.24804 | -60.86147 | 6492 ft | 177 kts | 238° |
| 2026-04-25 12:23 | -3.25461 | -60.87192 | 6492 ft | 178 kts | 238° |
| 2026-04-25 12:23 | -3.26123 | -60.88242 | 6486 ft | 178 kts | 238° |
| 2026-04-25 12:24 | -3.26785 | -60.89293 | 6488 ft | 178 kts | 238° |
| 2026-04-25 12:24 | -3.27448 | -60.90346 | 6489 ft | 179 kts | 238° |
| 2026-04-25 12:24 | -3.28112 | -60.91401 | 6490 ft | 179 kts | 238° |
| 2026-04-25 12:24 | -3.28777 | -60.92457 | 6489 ft | 179 kts | 239° |
| 2026-04-25 12:25 | -3.29218 | -60.93158 | 6488 ft | 179 kts | 238° |
| 2026-04-25 12:25 | -3.29884 | -60.94217 | 6489 ft | 179 kts | 238° |
| 2026-04-25 12:25 | -3.30550 | -60.95274 | 6491 ft | 179 kts | 238° |
| 2026-04-25 12:25 | -3.31431 | -60.96673 | 6495 ft | 180 kts | 238° |
| 2026-04-25 12:26 | -3.31881 | -60.97390 | 6489 ft | 180 kts | 239° |
| 2026-04-25 12:26 | -3.32544 | -60.98441 | 6486 ft | 181 kts | 238° |
| 2026-04-25 12:26 | -3.33216 | -60.99507 | 6488 ft | 181 kts | 238° |
| 2026-04-25 12:26 | -3.33884 | -61.00570 | 6487 ft | 181 kts | 238° |
| 2026-04-25 12:27 | -3.34555 | -61.01636 | 6488 ft | 180 kts | 239° |
| 2026-04-25 12:27 | -3.35226 | -61.02701 | 6489 ft | 181 kts | 239° |
| 2026-04-25 12:27 | -3.35895 | -61.03764 | 6490 ft | 181 kts | 238° |
| 2026-04-25 12:27 | -3.36565 | -61.04830 | 6493 ft | 181 kts | 239° |
| 2026-04-25 12:28 | -3.37228 | -61.05882 | 6491 ft | 180 kts | 238° |
| 2026-04-25 12:28 | -3.37899 | -61.06949 | 6492 ft | 180 kts | 238° |
| 2026-04-25 12:28 | -3.38568 | -61.08012 | 6487 ft | 180 kts | 238° |
| 2026-04-25 12:28 | -3.39236 | -61.09073 | 6487 ft | 180 kts | 238° |
| 2026-04-25 12:29 | -3.39906 | -61.10137 | 6489 ft | 180 kts | 238° |
| 2026-04-25 12:29 | -3.40567 | -61.11188 | 6488 ft | 180 kts | 239° |
| 2026-04-25 12:29 | -3.41237 | -61.12254 | 6487 ft | 181 kts | 239° |
| 2026-04-25 12:29 | -3.41908 | -61.13320 | 6487 ft | 180 kts | 239° |
| 2026-04-25 12:30 | -3.42577 | -61.14382 | 6488 ft | 180 kts | 239° |
| 2026-04-25 12:30 | -3.43246 | -61.15446 | 6488 ft | 180 kts | 239° |
| 2026-04-25 12:30 | -3.43915 | -61.16510 | 6487 ft | 180 kts | 239° |
| 2026-04-25 12:30 | -3.44575 | -61.17559 | 6484 ft | 180 kts | 239° |
| 2026-04-25 12:31 | -3.45244 | -61.18621 | 6486 ft | 180 kts | 239° |
| 2026-04-25 12:31 | -3.45913 | -61.19684 | 6488 ft | 180 kts | 239° |
| 2026-04-25 12:31 | -3.46580 | -61.20746 | 6489 ft | 180 kts | 239° |
| 2026-04-25 12:31 | -3.47247 | -61.21806 | 6488 ft | 180 kts | 239° |
| 2026-04-25 12:32 | -3.47914 | -61.22866 | 6490 ft | 180 kts | 239° |
| 2026-04-25 12:32 | -3.48582 | -61.23928 | 6488 ft | 180 kts | 239° |
| 2026-04-25 12:32 | -3.49242 | -61.24977 | 6489 ft | 180 kts | 239° |
| 2026-04-25 12:32 | -3.49908 | -61.26036 | 6488 ft | 180 kts | 239° |
| 2026-04-25 12:33 | -3.50575 | -61.27096 | 6488 ft | 180 kts | 239° |
| 2026-04-25 12:33 | -3.51244 | -61.28161 | 6490 ft | 180 kts | 239° |
| 2026-04-25 12:33 | -3.51913 | -61.29224 | 6488 ft | 180 kts | 239° |
| 2026-04-25 12:33 | -3.52584 | -61.30290 | 6490 ft | 180 kts | 239° |
| 2026-04-25 12:34 | -3.53252 | -61.31352 | 6492 ft | 180 kts | 239° |
| 2026-04-25 12:34 | -3.53921 | -61.32416 | 6489 ft | 180 kts | 239° |
| 2026-04-25 12:34 | -3.54580 | -61.33464 | 6488 ft | 180 kts | 239° |
| 2026-04-25 12:34 | -3.55031 | -61.34181 | 6490 ft | 180 kts | 239° |
| 2026-04-25 12:35 | -3.55916 | -61.35589 | 6487 ft | 180 kts | 239° |
| 2026-04-25 12:35 | -3.56583 | -61.36649 | 6491 ft | 180 kts | 239° |
| 2026-04-25 12:35 | -3.57251 | -61.37713 | 6494 ft | 180 kts | 239° |
| 2026-04-25 12:35 | -3.57921 | -61.38777 | 6490 ft | 180 kts | 239° |
| 2026-04-25 12:36 | -3.58581 | -61.39827 | 6492 ft | 180 kts | 239° |
| 2026-04-25 12:36 | -3.59246 | -61.40886 | 6491 ft | 179 kts | 239° |
| 2026-04-25 12:36 | -3.59914 | -61.41944 | 6492 ft | 180 kts | 239° |
| 2026-04-25 12:36 | -3.60579 | -61.43007 | 6494 ft | 180 kts | 239° |
| 2026-04-25 12:37 | -3.61246 | -61.44068 | 6492 ft | 180 kts | 239° |
| 2026-04-25 12:37 | -3.61915 | -61.45128 | 6492 ft | 180 kts | 239° |
| 2026-04-25 12:37 | -3.62578 | -61.46186 | 6490 ft | 179 kts | 239° |
| 2026-04-25 12:37 | -3.63244 | -61.47244 | 6490 ft | 179 kts | 239° |
| 2026-04-25 12:38 | -3.63901 | -61.48290 | 6490 ft | 180 kts | 239° |
| 2026-04-25 12:38 | -3.64570 | -61.49355 | 6489 ft | 180 kts | 239° |
| 2026-04-25 12:38 | -3.65238 | -61.50418 | 6489 ft | 180 kts | 239° |
| 2026-04-25 12:38 | -3.65897 | -61.51465 | 6493 ft | 180 kts | 239° |
| 2026-04-25 12:39 | -3.66566 | -61.52528 | 6493 ft | 180 kts | 239° |
| 2026-04-25 12:39 | -3.67232 | -61.53591 | 6490 ft | 180 kts | 239° |
| 2026-04-25 12:39 | -3.67899 | -61.54651 | 6493 ft | 180 kts | 239° |
| 2026-04-25 12:39 | -3.68564 | -61.55710 | 6489 ft | 180 kts | 239° |
| 2026-04-25 12:40 | -3.69224 | -61.56760 | 6489 ft | 180 kts | 239° |
| 2026-04-25 12:40 | -3.69892 | -61.57822 | 6488 ft | 180 kts | 239° |
| 2026-04-25 12:40 | -3.70559 | -61.58884 | 6492 ft | 180 kts | 239° |
| 2026-04-25 12:40 | -3.71226 | -61.59946 | 6492 ft | 180 kts | 239° |
| 2026-04-25 12:41 | -3.71893 | -61.61007 | 6492 ft | 180 kts | 239° |
| 2026-04-25 12:41 | -3.72560 | -61.62069 | 6494 ft | 180 kts | 239° |
| 2026-04-25 12:41 | -3.73219 | -61.63117 | 6492 ft | 180 kts | 239° |
| 2026-04-25 12:41 | -3.73888 | -61.64182 | 6491 ft | 180 kts | 239° |
| 2026-04-25 12:42 | -3.74555 | -61.65246 | 6496 ft | 180 kts | 240° |
| 2026-04-25 12:42 | -3.74906 | -61.65990 | 6489 ft | 179 kts | 255° |
| 2026-04-25 12:42 | -3.75146 | -61.67632 | 6489 ft | 178 kts | 263° |
| 2026-04-25 12:42 | -3.75333 | -61.68858 | 6489 ft | 178 kts | 263° |
| 2026-04-25 12:43 | -3.75513 | -61.70083 | 6492 ft | 178 kts | 263° |
| 2026-04-25 12:43 | -3.75688 | -61.71298 | 6492 ft | 178 kts | 263° |
| 2026-04-25 12:43 | -3.76044 | -61.73760 | 6492 ft | 178 kts | 263° |
| 2026-04-25 12:44 | -3.76223 | -61.74992 | 6493 ft | 178 kts | 263° |
| 2026-04-25 12:44 | -3.76401 | -61.76221 | 6492 ft | 178 kts | 263° |
| 2026-04-25 12:44 | -3.76754 | -61.78663 | 6493 ft | 178 kts | 263° |
| 2026-04-25 12:45 | -3.76932 | -61.79891 | 6491 ft | 178 kts | 263° |
| 2026-04-25 12:45 | -3.77109 | -61.81121 | 6490 ft | 178 kts | 263° |
| 2026-04-25 12:45 | -3.77465 | -61.83581 | 6491 ft | 178 kts | 263° |
| 2026-04-25 12:46 | -3.77643 | -61.84810 | 6491 ft | 178 kts | 263° |
| 2026-04-25 12:46 | -3.77818 | -61.86024 | 6492 ft | 178 kts | 263° |
| 2026-04-25 12:46 | -3.77996 | -61.87256 | 6493 ft | 179 kts | 263° |
| 2026-04-25 12:46 | -3.78175 | -61.88488 | 6494 ft | 179 kts | 263° |
| 2026-04-25 12:47 | -3.78353 | -61.89722 | 6492 ft | 179 kts | 263° |
| 2026-04-25 12:47 | -3.78531 | -61.90959 | 6496 ft | 179 kts | 264° |
| 2026-04-25 12:47 | -3.78708 | -61.92177 | 6493 ft | 179 kts | 264° |
| 2026-04-25 12:47 | -3.78885 | -61.93410 | 6492 ft | 179 kts | 263° |
| 2026-04-25 12:48 | -3.79064 | -61.94644 | 6493 ft | 179 kts | 263° |
| 2026-04-25 12:48 | -3.79242 | -61.95877 | 6497 ft | 179 kts | 263° |
| 2026-04-25 12:48 | -3.79420 | -61.97115 | 6495 ft | 179 kts | 263° |
| 2026-04-25 12:48 | -3.79600 | -61.98351 | 6494 ft | 179 kts | 263° |
| 2026-04-25 12:49 | -3.79779 | -61.99590 | 6494 ft | 179 kts | 263° |
| 2026-04-25 12:49 | -3.79954 | -62.00810 | 6494 ft | 179 kts | 263° |
| 2026-04-25 12:49 | -3.80132 | -62.02045 | 6497 ft | 179 kts | 263° |
| 2026-04-25 12:49 | -3.80313 | -62.03285 | 6499 ft | 179 kts | 263° |
| 2026-04-25 12:50 | -3.80488 | -62.04511 | 6496 ft | 179 kts | 263° |
| 2026-04-25 12:50 | -3.80668 | -62.05753 | 6493 ft | 180 kts | 263° |
| 2026-04-25 12:50 | -3.80847 | -62.06990 | 6491 ft | 180 kts | 263° |
| 2026-04-25 12:50 | -3.81026 | -62.08230 | 6491 ft | 179 kts | 263° |
| 2026-04-25 12:51 | -3.81201 | -62.09455 | 6493 ft | 180 kts | 263° |
| 2026-04-25 12:51 | -3.81381 | -62.10693 | 6495 ft | 179 kts | 263° |
| 2026-04-25 12:51 | -3.81559 | -62.11927 | 6495 ft | 179 kts | 263° |
| 2026-04-25 12:51 | -3.81737 | -62.13166 | 6495 ft | 179 kts | 263° |
| 2026-04-25 12:52 | -3.81916 | -62.14405 | 6496 ft | 180 kts | 263° |
| 2026-04-25 12:52 | -3.82095 | -62.15646 | 6493 ft | 180 kts | 263° |
| 2026-04-25 12:52 | -3.82274 | -62.16885 | 6496 ft | 179 kts | 263° |
| 2026-04-25 12:52 | -3.82449 | -62.18106 | 6492 ft | 180 kts | 263° |
| 2026-04-25 12:53 | -3.82628 | -62.19343 | 6492 ft | 179 kts | 263° |
| 2026-04-25 12:53 | -3.82808 | -62.20587 | 6491 ft | 179 kts | 263° |
| 2026-04-25 12:53 | -3.82986 | -62.21827 | 6495 ft | 179 kts | 263° |
| 2026-04-25 12:53 | -3.83162 | -62.23050 | 6489 ft | 180 kts | 263° |
| 2026-04-25 12:54 | -3.83341 | -62.24293 | 6495 ft | 180 kts | 263° |
| 2026-04-25 12:54 | -3.83521 | -62.25537 | 6497 ft | 180 kts | 263° |
| 2026-04-25 12:54 | -3.83700 | -62.26780 | 6493 ft | 180 kts | 263° |
| 2026-04-25 12:54 | -3.83876 | -62.28008 | 6495 ft | 180 kts | 263° |
| 2026-04-25 12:55 | -3.84057 | -62.29250 | 6497 ft | 180 kts | 263° |
| 2026-04-25 12:55 | -3.84177 | -62.30090 | 6494 ft | 180 kts | 263° |
| 2026-04-25 12:55 | -3.84412 | -62.31731 | 6500 ft | 180 kts | 263° |
| 2026-04-25 12:55 | -3.84592 | -62.32974 | 6499 ft | 180 kts | 263° |
| 2026-04-25 12:56 | -3.84772 | -62.34220 | 6497 ft | 180 kts | 263° |
| 2026-04-25 12:56 | -3.84948 | -62.35445 | 6495 ft | 180 kts | 263° |
| 2026-04-25 12:56 | -3.85127 | -62.36690 | 6495 ft | 180 kts | 263° |
| 2026-04-25 12:56 | -3.85306 | -62.37933 | 6495 ft | 180 kts | 263° |
| 2026-04-25 12:57 | -3.85484 | -62.39174 | 6497 ft | 180 kts | 263° |
| 2026-04-25 12:57 | -3.85661 | -62.40403 | 6493 ft | 180 kts | 263° |
| 2026-04-25 12:57 | -3.85841 | -62.41649 | 6499 ft | 180 kts | 263° |
| 2026-04-25 12:57 | -3.86020 | -62.42894 | 6497 ft | 181 kts | 263° |
| 2026-04-25 12:58 | -3.86199 | -62.44141 | 6494 ft | 180 kts | 263° |
| 2026-04-25 12:58 | -3.86378 | -62.45385 | 6496 ft | 180 kts | 263° |
| 2026-04-25 12:58 | -3.86557 | -62.46627 | 6494 ft | 180 kts | 263° |
| 2026-04-25 12:58 | -3.86735 | -62.47866 | 6496 ft | 180 kts | 263° |
| 2026-04-25 12:59 | -3.86913 | -62.49106 | 6495 ft | 180 kts | 263° |
| 2026-04-25 12:59 | -3.87090 | -62.50334 | 6499 ft | 181 kts | 263° |
| 2026-04-25 12:59 | -3.87269 | -62.51580 | 6497 ft | 180 kts | 263° |
| 2026-04-25 12:59 | -3.87447 | -62.52826 | 6502 ft | 181 kts | 263° |
| 2026-04-25 13:00 | -3.87628 | -62.54074 | 6497 ft | 181 kts | 263° |
| 2026-04-25 13:00 | -3.87686 | -62.54480 | 6500 ft | 181 kts | 263° |
| 2026-04-25 13:00 | -3.87986 | -62.56569 | 6499 ft | 181 kts | 263° |
| 2026-04-25 13:00 | -3.88164 | -62.57804 | 6497 ft | 181 kts | 263° |
| 2026-04-25 13:01 | -3.88343 | -62.59056 | 6495 ft | 181 kts | 263° |
| 2026-04-25 13:01 | -3.88523 | -62.60308 | 6497 ft | 181 kts | 263° |
| 2026-04-25 13:01 | -3.88700 | -62.61539 | 6495 ft | 180 kts | 263° |
| 2026-04-25 13:01 | -3.88942 | -62.62770 | 6495 ft | 180 kts | 256° |
| 2026-04-25 13:02 | -3.89257 | -62.63991 | 6492 ft | 180 kts | 257° |
| 2026-04-25 13:02 | -3.89555 | -62.65212 | 6495 ft | 180 kts | 257° |
| 2026-04-25 13:02 | -3.89856 | -62.66435 | 6495 ft | 181 kts | 257° |
| 2026-04-25 13:02 | -3.90156 | -62.67646 | 6494 ft | 181 kts | 257° |
| 2026-04-25 13:03 | -3.90459 | -62.68872 | 6498 ft | 181 kts | 257° |
| 2026-04-25 13:03 | -3.90764 | -62.70099 | 6496 ft | 182 kts | 257° |
| 2026-04-25 13:03 | -3.91068 | -62.71331 | 6496 ft | 182 kts | 257° |
| 2026-04-25 13:03 | -3.91374 | -62.72563 | 6493 ft | 182 kts | 257° |
| 2026-04-25 13:04 | -3.91678 | -62.73793 | 6494 ft | 181 kts | 257° |
| 2026-04-25 13:04 | -3.91978 | -62.75006 | 6497 ft | 181 kts | 257° |
| 2026-04-25 13:04 | -3.92282 | -62.76231 | 6504 ft | 182 kts | 257° |
| 2026-04-25 13:04 | -3.92587 | -62.77465 | 6502 ft | 183 kts | 257° |
| 2026-04-25 13:05 | -3.92891 | -62.78690 | 6500 ft | 174 kts | 257° |
| 2026-04-25 13:05 | -3.93178 | -62.79848 | 6186 ft | 170 kts | 257° |
| 2026-04-25 13:05 | -3.93458 | -62.80980 | 5878 ft | 165 kts | 257° |
| 2026-04-25 13:05 | -3.93731 | -62.82086 | 5581 ft | 162 kts | 257° |
| 2026-04-25 13:06 | -3.94000 | -62.83177 | 5289 ft | 161 kts | 257° |
| 2026-04-25 13:06 | -3.94269 | -62.84260 | 5001 ft | 159 kts | 257° |
| 2026-04-25 13:06 | -3.94535 | -62.85334 | 4733 ft | 157 kts | 257° |
| 2026-04-25 13:06 | -3.94798 | -62.86399 | 4485 ft | 163 kts | 257° |
| 2026-04-25 13:07 | -3.95082 | -62.87549 | 4254 ft | 175 kts | 257° |
| 2026-04-25 13:07 | -3.95378 | -62.88745 | 4041 ft | 182 kts | 257° |
| 2026-04-25 13:07 | -3.95682 | -62.89983 | 3816 ft | 185 kts | 257° |
| 2026-04-25 13:07 | -3.95996 | -62.91238 | 3579 ft | 186 kts | 256° |
| 2026-04-25 13:08 | -3.96307 | -62.92498 | 3342 ft | 185 kts | 257° |
| 2026-04-25 13:08 | -3.96614 | -62.93741 | 3101 ft | 182 kts | 257° |
| 2026-04-25 13:08 | -3.96918 | -62.94968 | 2853 ft | 180 kts | 256° |
| 2026-04-25 13:08 | -3.97215 | -62.96168 | 2615 ft | 179 kts | 256° |
| 2026-04-25 13:09 | -3.97514 | -62.97377 | 2372 ft | 178 kts | 256° |
| 2026-04-25 13:09 | -3.97809 | -62.98574 | 2125 ft | 176 kts | 256° |
| 2026-04-25 13:09 | -3.98107 | -62.99777 | 2003 ft | 177 kts | 256° |
| 2026-04-25 13:09 | -3.98400 | -63.00966 | 2004 ft | 174 kts | 256° |
| 2026-04-25 13:10 | -3.98692 | -63.02141 | 2003 ft | 173 kts | 256° |
| 2026-04-25 13:10 | -3.98980 | -63.03311 | 2001 ft | 173 kts | 256° |
| 2026-04-25 13:10 | -3.99270 | -63.04480 | 2000 ft | 173 kts | 256° |
| 2026-04-25 13:10 | -3.99557 | -63.05648 | 2002 ft | 172 kts | 256° |
| 2026-04-25 13:11 | -3.99846 | -63.06813 | 2000 ft | 172 kts | 256° |
| 2026-04-25 13:11 | -4.00133 | -63.07978 | 2004 ft | 172 kts | 256° |
| 2026-04-25 13:11 | -4.00462 | -63.09116 | 2002 ft | 172 kts | 245° |
| 2026-04-25 13:11 | -4.01214 | -63.10033 | 1996 ft | 172 kts | 218° |
| 2026-04-25 13:12 | -4.02280 | -63.10552 | 1997 ft | 171 kts | 193° |
| 2026-04-25 13:12 | -4.03455 | -63.10763 | 1990 ft | 171 kts | 191° |
| 2026-04-25 13:12 | -4.04623 | -63.10997 | 1993 ft | 171 kts | 191° |
| 2026-04-25 13:12 | -4.05005 | -63.11070 | 1995 ft | 171 kts | 190° |
| 2026-04-25 13:13 | -4.06956 | -63.11438 | 1996 ft | 171 kts | 190° |
| 2026-04-25 13:13 | -4.08131 | -63.11661 | 1996 ft | 171 kts | 191° |
| 2026-04-25 13:13 | -4.09279 | -63.11879 | 2019 ft | 158 kts | 190° |
| 2026-04-25 13:13 | -4.10318 | -63.12076 | 1933 ft | 154 kts | 190° |
| 2026-04-25 13:14 | -4.11390 | -63.12218 | 1688 ft | 157 kts | 176° |
| 2026-04-25 13:14 | -4.12341 | -63.11726 | 1430 ft | 159 kts | 131° |
| 2026-04-25 13:14 | -4.12672 | -63.11076 | 1302 ft | 157 kts | 103° |
| 2026-04-25 13:14 | -4.12915 | -63.10072 | 1296 ft | 136 kts | 123° |
| 2026-04-25 13:15 | -4.13638 | -63.09703 | 1279 ft | 116 kts | 184° |
| 2026-04-25 13:15 | -4.14264 | -63.10154 | 1116 ft | 119 kts | 244° |
| 2026-04-25 13:15 | -4.14194 | -63.10946 | 832 ft | 111 kts | 304° |
| 2026-04-25 13:15 | -4.13597 | -63.11689 | 431 ft | 100 kts | 300° |
| 2026-04-25 13:16 | -4.13425 | -63.12107 | 271 ft | 91 kts | 283° |
| 2026-04-25 13:16 | -4.13402 | -63.12664 | 162 ft | 69 kts | 269° |
| 2026-04-25 13:16 | -4.13402 | -63.13029 | 158 ft | 40 kts | 270° |
| 2026-04-25 13:16 | -4.13403 | -63.13284 | 151 ft | 34 kts | 268° |
| 2026-04-25 13:17 | -4.13389 | -63.13475 | 150 ft | 16 kts | 316° |
| 2026-04-25 13:17 | -4.13294 | -63.13484 | 150 ft | 14 kts | 1° |
| 2026-04-25 13:17 | -4.13206 | -63.13490 | 150 ft | 6 kts | 338° |
| 2026-04-25 13:17 | -4.13192 | -63.13498 | 151 ft | 0 kts | 320° |